sensor_id;sensor_type;location;lat;lon;timestamp;temperature;humidity
42365;DHT22;28498;54.400;18.566;2024-03-07T00:01:07;-1.10;99.90
42365;DHT22;28498;54.400;18.566;2024-03-07T00:03:34;-1.20;99.90
42365;DHT22;28498;54.400;18.566;2024-03-07T00:06:01;-1.20;99.90
42365;DHT22;28498;54.400;18.566;2024-03-07T00:08:30;-1.10;99.90
42365;DHT22;28498;54.400;18.566;2024-03-07T00:10:57;-1.00;99.90
42365;DHT22;28498;54.400;18.566;2024-03-07T00:13:24;-1.00;99.90
42365;DHT22;28498;54.400;18.566;2024-03-07T00:15:51;-1.00;99.90
42365;DHT22;28498;54.400;18.566;2024-03-07T00:18:19;-1.00;99.90
42365;DHT22;28498;54.400;18.566;2024-03-07T00:20:46;-0.90;99.90
42365;DHT22;28498;54.400;18.566;2024-03-07T00:23:13;-0.80;99.90
42365;DHT22;28498;54.400;18.566;2024-03-07T00:25:41;-0.90;99.90
42365;DHT22;28498;54.400;18.566;2024-03-07T00:28:08;-0.90;99.90
42365;DHT22;28498;54.400;18.566;2024-03-07T00:30:35;-1.00;99.90
42365;DHT22;28498;54.400;18.566;2024-03-07T00:33:02;-1.20;99.90
42365;DHT22;28498;54.400;18.566;2024-03-07T00:35:29;-1.20;99.90
42365;DHT22;28498;54.400;18.566;2024-03-07T00:37:56;-1.10;99.90
42365;DHT22;28498;54.400;18.566;2024-03-07T00:40:24;-1.10;99.90
42365;DHT22;28498;54.400;18.566;2024-03-07T00:42:51;-1.10;99.90
42365;DHT22;28498;54.400;18.566;2024-03-07T00:45:18;-1.20;99.90
42365;DHT22;28498;54.400;18.566;2024-03-07T00:47:45;-1.20;99.90
42365;DHT22;28498;54.400;18.566;2024-03-07T00:50:12;-1.10;99.90
42365;DHT22;28498;54.400;18.566;2024-03-07T00:52:40;-1.20;99.90
42365;DHT22;28498;54.400;18.566;2024-03-07T00:55:07;-1.30;99.90
42365;DHT22;28498;54.400;18.566;2024-03-07T00:57:37;-1.30;99.90
42365;DHT22;28498;54.400;18.566;2024-03-07T01:00:04;-1.30;99.90
42365;DHT22;28498;54.400;18.566;2024-03-07T01:02:32;-1.30;99.90
42365;DHT22;28498;54.400;18.566;2024-03-07T01:05:01;-1.30;99.90
42365;DHT22;28498;54.400;18.566;2024-03-07T01:07:28;-1.50;99.90
42365;DHT22;28498;54.400;18.566;2024-03-07T01:09:55;-1.50;99.90
42365;DHT22;28498;54.400;18.566;2024-03-07T01:12:22;-1.60;99.90
42365;DHT22;28498;54.400;18.566;2024-03-07T01:14:51;-1.70;99.90
42365;DHT22;28498;54.400;18.566;2024-03-07T01:17:18;-1.40;99.90
42365;DHT22;28498;54.400;18.566;2024-03-07T01:19:45;-1.40;99.90
42365;DHT22;28498;54.400;18.566;2024-03-07T01:22:12;-1.40;99.90
42365;DHT22;28498;54.400;18.566;2024-03-07T01:24:39;-1.30;99.90
42365;DHT22;28498;54.400;18.566;2024-03-07T01:27:06;-1.40;99.90
42365;DHT22;28498;54.400;18.566;2024-03-07T01:29:34;-1.40;99.90
42365;DHT22;28498;54.400;18.566;2024-03-07T01:32:01;-1.50;99.90
42365;DHT22;28498;54.400;18.566;2024-03-07T01:34:29;-1.40;99.90
42365;DHT22;28498;54.400;18.566;2024-03-07T01:36:57;-1.20;99.90
42365;DHT22;28498;54.400;18.566;2024-03-07T01:39:24;-1.40;99.90
42365;DHT22;28498;54.400;18.566;2024-03-07T01:41:51;-1.40;99.90
42365;DHT22;28498;54.400;18.566;2024-03-07T01:44:18;-1.50;99.90
42365;DHT22;28498;54.400;18.566;2024-03-07T01:46:45;-1.40;99.90
42365;DHT22;28498;54.400;18.566;2024-03-07T01:49:12;-1.50;99.90
42365;DHT22;28498;54.400;18.566;2024-03-07T01:51:39;-1.60;99.90
42365;DHT22;28498;54.400;18.566;2024-03-07T01:54:08;-1.70;99.90
42365;DHT22;28498;54.400;18.566;2024-03-07T01:56:36;-1.70;99.90
42365;DHT22;28498;54.400;18.566;2024-03-07T01:59:05;-1.60;99.90
42365;DHT22;28498;54.400;18.566;2024-03-07T02:01:34;-1.50;99.90
42365;DHT22;28498;54.400;18.566;2024-03-07T02:04:03;-1.40;99.90
42365;DHT22;28498;54.400;18.566;2024-03-07T02:06:33;-1.40;99.90
42365;DHT22;28498;54.400;18.566;2024-03-07T02:09:00;-1.30;99.90
42365;DHT22;28498;54.400;18.566;2024-03-07T02:11:29;-1.20;99.90
42365;DHT22;28498;54.400;18.566;2024-03-07T02:13:57;-1.20;99.90
42365;DHT22;28498;54.400;18.566;2024-03-07T02:16:24;-1.20;99.90
42365;DHT22;28498;54.400;18.566;2024-03-07T02:18:51;-1.20;99.90
42365;DHT22;28498;54.400;18.566;2024-03-07T02:21:18;-1.30;99.90
42365;DHT22;28498;54.400;18.566;2024-03-07T02:23:45;-1.40;99.90
42365;DHT22;28498;54.400;18.566;2024-03-07T02:26:13;-1.30;99.90
42365;DHT22;28498;54.400;18.566;2024-03-07T02:28:40;-1.30;99.90
42365;DHT22;28498;54.400;18.566;2024-03-07T02:31:07;-1.20;99.90
42365;DHT22;28498;54.400;18.566;2024-03-07T02:33:34;-1.20;99.90
42365;DHT22;28498;54.400;18.566;2024-03-07T02:41:18;-1.50;99.90
42365;DHT22;28498;54.400;18.566;2024-03-07T02:43:45;-1.30;99.90
42365;DHT22;28498;54.400;18.566;2024-03-07T02:46:12;-1.10;99.90
42365;DHT22;28498;54.400;18.566;2024-03-07T02:48:39;-1.20;99.90
42365;DHT22;28498;54.400;18.566;2024-03-07T02:51:06;-1.40;99.90
42365;DHT22;28498;54.400;18.566;2024-03-07T02:53:33;-1.50;99.90
42365;DHT22;28498;54.400;18.566;2024-03-07T02:56:00;-1.60;99.90
42365;DHT22;28498;54.400;18.566;2024-03-07T02:58:27;-1.60;99.90
42365;DHT22;28498;54.400;18.566;2024-03-07T03:00:59;-1.50;99.90
42365;DHT22;28498;54.400;18.566;2024-03-07T03:03:27;-1.60;99.90
42365;DHT22;28498;54.400;18.566;2024-03-07T03:05:54;-1.50;99.90
42365;DHT22;28498;54.400;18.566;2024-03-07T03:08:21;-1.50;99.90
42365;DHT22;28498;54.400;18.566;2024-03-07T03:10:49;-1.30;99.90
42365;DHT22;28498;54.400;18.566;2024-03-07T03:13:18;-1.30;99.90
42365;DHT22;28498;54.400;18.566;2024-03-07T03:15:45;-1.30;99.90
42365;DHT22;28498;54.400;18.566;2024-03-07T03:18:12;-1.30;99.90
42365;DHT22;28498;54.400;18.566;2024-03-07T03:20:39;-1.30;99.90
42365;DHT22;28498;54.400;18.566;2024-03-07T03:23:07;-1.50;99.90
42365;DHT22;28498;54.400;18.566;2024-03-07T03:25:47;-1.60;99.90
42365;DHT22;28498;54.400;18.566;2024-03-07T03:28:16;-1.60;99.90
42365;DHT22;28498;54.400;18.566;2024-03-07T03:30:47;-1.60;99.90
42365;DHT22;28498;54.400;18.566;2024-03-07T03:33:14;-1.50;99.90
42365;DHT22;28498;54.400;18.566;2024-03-07T03:35:42;-1.60;99.90
42365;DHT22;28498;54.400;18.566;2024-03-07T03:38:10;-1.70;99.90
42365;DHT22;28498;54.400;18.566;2024-03-07T03:40:37;-1.70;99.90
42365;DHT22;28498;54.400;18.566;2024-03-07T03:43:04;-1.80;99.90
42365;DHT22;28498;54.400;18.566;2024-03-07T03:45:31;-1.90;99.90
42365;DHT22;28498;54.400;18.566;2024-03-07T03:48:01;-1.80;99.90
42365;DHT22;28498;54.400;18.566;2024-03-07T03:50:29;-1.60;99.90
42365;DHT22;28498;54.400;18.566;2024-03-07T03:52:56;-1.60;99.90
42365;DHT22;28498;54.400;18.566;2024-03-07T03:55:24;-1.60;99.90
42365;DHT22;28498;54.400;18.566;2024-03-07T03:57:51;-1.60;99.90
42365;DHT22;28498;54.400;18.566;2024-03-07T04:00:18;-1.60;99.90
42365;DHT22;28498;54.400;18.566;2024-03-07T04:02:46;-1.60;99.90
42365;DHT22;28498;54.400;18.566;2024-03-07T04:05:17;-1.60;99.90
42365;DHT22;28498;54.400;18.566;2024-03-07T04:07:46;-1.60;99.90
42365;DHT22;28498;54.400;18.566;2024-03-07T04:10:15;-1.60;99.90
42365;DHT22;28498;54.400;18.566;2024-03-07T04:12:44;-1.60;99.90
42365;DHT22;28498;54.400;18.566;2024-03-07T04:15:15;-1.60;99.90
42365;DHT22;28498;54.400;18.566;2024-03-07T04:17:46;-1.50;99.90
42365;DHT22;28498;54.400;18.566;2024-03-07T04:20:14;-1.70;99.90
42365;DHT22;28498;54.400;18.566;2024-03-07T04:22:46;-1.70;99.90
42365;DHT22;28498;54.400;18.566;2024-03-07T04:25:13;-1.60;99.90
42365;DHT22;28498;54.400;18.566;2024-03-07T04:27:41;-1.60;99.90
42365;DHT22;28498;54.400;18.566;2024-03-07T04:30:09;-1.70;99.90
42365;DHT22;28498;54.400;18.566;2024-03-07T04:32:37;-1.60;99.90
42365;DHT22;28498;54.400;18.566;2024-03-07T04:35:06;-1.70;99.90
42365;DHT22;28498;54.400;18.566;2024-03-07T04:37:35;-1.80;99.90
42365;DHT22;28498;54.400;18.566;2024-03-07T04:40:05;-1.80;99.90
42365;DHT22;28498;54.400;18.566;2024-03-07T04:42:42;-1.80;99.90
42365;DHT22;28498;54.400;18.566;2024-03-07T04:45:11;-1.80;99.90
42365;DHT22;28498;54.400;18.566;2024-03-07T04:47:41;-1.70;99.90
42365;DHT22;28498;54.400;18.566;2024-03-07T04:50:15;-1.70;99.90
42365;DHT22;28498;54.400;18.566;2024-03-07T04:52:46;-1.60;99.90
42365;DHT22;28498;54.400;18.566;2024-03-07T04:55:15;-1.50;99.90
42365;DHT22;28498;54.400;18.566;2024-03-07T04:57:43;-1.60;99.90
42365;DHT22;28498;54.400;18.566;2024-03-07T05:00:12;-1.80;99.90
42365;DHT22;28498;54.400;18.566;2024-03-07T05:02:48;-1.90;99.90
42365;DHT22;28498;54.400;18.566;2024-03-07T05:05:18;-2.10;99.90
42365;DHT22;28498;54.400;18.566;2024-03-07T05:07:53;-2.00;99.90
42365;DHT22;28498;54.400;18.566;2024-03-07T05:10:20;-2.00;99.90
42365;DHT22;28498;54.400;18.566;2024-03-07T05:12:48;-2.00;99.90
42365;DHT22;28498;54.400;18.566;2024-03-07T05:15:15;-2.00;99.90
42365;DHT22;28498;54.400;18.566;2024-03-07T05:17:42;-2.00;99.90
42365;DHT22;28498;54.400;18.566;2024-03-07T05:20:11;-2.00;99.90
42365;DHT22;28498;54.400;18.566;2024-03-07T05:22:40;-2.00;99.90
42365;DHT22;28498;54.400;18.566;2024-03-07T05:25:08;-1.90;99.90
42365;DHT22;28498;54.400;18.566;2024-03-07T05:27:36;-1.90;99.90
42365;DHT22;28498;54.400;18.566;2024-03-07T05:30:03;-1.90;99.90
42365;DHT22;28498;54.400;18.566;2024-03-07T05:32:37;-1.80;99.90
42365;DHT22;28498;54.400;18.566;2024-03-07T05:35:05;-1.80;99.90
42365;DHT22;28498;54.400;18.566;2024-03-07T05:37:32;-1.90;99.90
42365;DHT22;28498;54.400;18.566;2024-03-07T05:40:00;-1.80;99.90
42365;DHT22;28498;54.400;18.566;2024-03-07T05:42:28;-1.80;99.90
42365;DHT22;28498;54.400;18.566;2024-03-07T05:44:56;-1.80;99.90
42365;DHT22;28498;54.400;18.566;2024-03-07T05:47:24;-1.80;99.90
42365;DHT22;28498;54.400;18.566;2024-03-07T05:49:51;-1.80;99.90
42365;DHT22;28498;54.400;18.566;2024-03-07T05:52:18;-1.80;99.90
42365;DHT22;28498;54.400;18.566;2024-03-07T05:54:45;-1.60;99.90
42365;DHT22;28498;54.400;18.566;2024-03-07T05:57:12;-1.60;99.90
42365;DHT22;28498;54.400;18.566;2024-03-07T05:59:39;-1.50;99.90
42365;DHT22;28498;54.400;18.566;2024-03-07T06:02:06;-1.50;99.90
42365;DHT22;28498;54.400;18.566;2024-03-07T06:04:33;-1.50;99.90
42365;DHT22;28498;54.400;18.566;2024-03-07T06:07:01;-1.40;99.90
42365;DHT22;28498;54.400;18.566;2024-03-07T06:09:28;-1.40;99.90
42365;DHT22;28498;54.400;18.566;2024-03-07T06:11:55;-1.40;99.90
42365;DHT22;28498;54.400;18.566;2024-03-07T06:14:22;-1.40;99.90
42365;DHT22;28498;54.400;18.566;2024-03-07T06:16:51;-1.30;99.90
42365;DHT22;28498;54.400;18.566;2024-03-07T06:19:21;-1.20;99.90
42365;DHT22;28498;54.400;18.566;2024-03-07T06:21:48;-1.10;99.90
42365;DHT22;28498;54.400;18.566;2024-03-07T06:24:16;-1.10;99.90
42365;DHT22;28498;54.400;18.566;2024-03-07T06:26:46;-1.00;99.90
42365;DHT22;28498;54.400;18.566;2024-03-07T06:29:17;-0.80;99.90
42365;DHT22;28498;54.400;18.566;2024-03-07T06:31:45;-0.50;99.90
42365;DHT22;28498;54.400;18.566;2024-03-07T06:34:17;-0.20;99.90
42365;DHT22;28498;54.400;18.566;2024-03-07T06:36:44;-0.10;99.90
42365;DHT22;28498;54.400;18.566;2024-03-07T06:39:11;0.00;99.90
42365;DHT22;28498;54.400;18.566;2024-03-07T06:41:39;0.20;99.90
42365;DHT22;28498;54.400;18.566;2024-03-07T06:50:41;0.50;99.90
42365;DHT22;28498;54.400;18.566;2024-03-07T06:53:09;0.70;99.90
42365;DHT22;28498;54.400;18.566;2024-03-07T06:55:37;0.70;99.90
42365;DHT22;28498;54.400;18.566;2024-03-07T06:58:05;0.80;99.90
42365;DHT22;28498;54.400;18.566;2024-03-07T07:00:33;0.90;99.90
42365;DHT22;28498;54.400;18.566;2024-03-07T07:03:05;1.10;99.90
42365;DHT22;28498;54.400;18.566;2024-03-07T07:05:32;1.20;99.90
42365;DHT22;28498;54.400;18.566;2024-03-07T07:08:00;1.30;99.90
42365;DHT22;28498;54.400;18.566;2024-03-07T07:10:28;1.30;99.90
42365;DHT22;28498;54.400;18.566;2024-03-07T07:12:55;1.40;99.90
42365;DHT22;28498;54.400;18.566;2024-03-07T07:15:22;1.60;99.90
42365;DHT22;28498;54.400;18.566;2024-03-07T07:17:49;1.60;99.90
42365;DHT22;28498;54.400;18.566;2024-03-07T07:20:17;1.70;99.90
42365;DHT22;28498;54.400;18.566;2024-03-07T07:22:46;1.80;99.90
42365;DHT22;28498;54.400;18.566;2024-03-07T07:25:14;1.90;99.90
42365;DHT22;28498;54.400;18.566;2024-03-07T07:31:30;2.10;99.90
42365;DHT22;28498;54.400;18.566;2024-03-07T07:33:59;2.30;99.90
42365;DHT22;28498;54.400;18.566;2024-03-07T07:36:26;2.40;99.90
42365;DHT22;28498;54.400;18.566;2024-03-07T07:38:57;2.40;99.90
42365;DHT22;28498;54.400;18.566;2024-03-07T07:41:25;2.50;99.90
42365;DHT22;28498;54.400;18.566;2024-03-07T07:43:52;2.50;99.90
42365;DHT22;28498;54.400;18.566;2024-03-07T07:46:20;2.60;99.90
42365;DHT22;28498;54.400;18.566;2024-03-07T07:48:47;2.60;99.90
42365;DHT22;28498;54.400;18.566;2024-03-07T07:51:14;2.70;99.90
42365;DHT22;28498;54.400;18.566;2024-03-07T07:53:41;2.80;99.90
42365;DHT22;28498;54.400;18.566;2024-03-07T07:56:08;2.90;99.90
42365;DHT22;28498;54.400;18.566;2024-03-07T07:58:35;2.90;99.90
42365;DHT22;28498;54.400;18.566;2024-03-07T08:01:02;3.00;99.90
42365;DHT22;28498;54.400;18.566;2024-03-07T08:03:29;3.00;99.90
42365;DHT22;28498;54.400;18.566;2024-03-07T08:05:57;3.10;99.90
42365;DHT22;28498;54.400;18.566;2024-03-07T08:08:24;3.20;99.90
42365;DHT22;28498;54.400;18.566;2024-03-07T08:10:51;3.30;99.90
42365;DHT22;28498;54.400;18.566;2024-03-07T08:13:18;3.40;99.90
42365;DHT22;28498;54.400;18.566;2024-03-07T08:15:45;3.30;99.90
42365;DHT22;28498;54.400;18.566;2024-03-07T08:18:13;3.40;99.90
42365;DHT22;28498;54.400;18.566;2024-03-07T08:20:40;3.40;99.90
42365;DHT22;28498;54.400;18.566;2024-03-07T08:23:09;3.50;99.90
42365;DHT22;28498;54.400;18.566;2024-03-07T08:25:37;3.50;99.90
42365;DHT22;28498;54.400;18.566;2024-03-07T08:28:07;3.70;99.90
42365;DHT22;28498;54.400;18.566;2024-03-07T08:30:34;3.70;99.90
42365;DHT22;28498;54.400;18.566;2024-03-07T08:33:04;3.80;99.90
42365;DHT22;28498;54.400;18.566;2024-03-07T08:35:33;3.80;99.90
42365;DHT22;28498;54.400;18.566;2024-03-07T08:38:01;3.90;99.90
42365;DHT22;28498;54.400;18.566;2024-03-07T08:40:29;3.90;99.90
42365;DHT22;28498;54.400;18.566;2024-03-07T08:43:00;3.90;99.90
42365;DHT22;28498;54.400;18.566;2024-03-07T08:45:28;4.00;99.90
42365;DHT22;28498;54.400;18.566;2024-03-07T08:47:57;4.00;99.90
42365;DHT22;28498;54.400;18.566;2024-03-07T08:50:26;3.90;99.90
42365;DHT22;28498;54.400;18.566;2024-03-07T08:52:54;4.00;99.90
42365;DHT22;28498;54.400;18.566;2024-03-07T08:55:25;4.00;99.90
42365;DHT22;28498;54.400;18.566;2024-03-07T08:57:53;4.00;99.90
42365;DHT22;28498;54.400;18.566;2024-03-07T09:00:20;4.00;99.90
42365;DHT22;28498;54.400;18.566;2024-03-07T09:02:57;4.00;99.90
42365;DHT22;28498;54.400;18.566;2024-03-07T09:05:28;4.00;99.90
42365;DHT22;28498;54.400;18.566;2024-03-07T09:07:56;4.00;99.90
42365;DHT22;28498;54.400;18.566;2024-03-07T09:10:23;4.00;99.90
42365;DHT22;28498;54.400;18.566;2024-03-07T09:12:57;3.90;99.90
42365;DHT22;28498;54.400;18.566;2024-03-07T09:15:25;3.90;99.90
42365;DHT22;28498;54.400;18.566;2024-03-07T09:17:54;3.90;99.90
42365;DHT22;28498;54.400;18.566;2024-03-07T09:20:21;3.90;99.90
42365;DHT22;28498;54.400;18.566;2024-03-07T09:22:48;4.00;99.90
42365;DHT22;28498;54.400;18.566;2024-03-07T09:25:17;4.00;99.90
42365;DHT22;28498;54.400;18.566;2024-03-07T09:27:46;4.00;99.90
42365;DHT22;28498;54.400;18.566;2024-03-07T09:30:14;4.20;99.90
42365;DHT22;28498;54.400;18.566;2024-03-07T09:32:46;4.10;99.90
42365;DHT22;28498;54.400;18.566;2024-03-07T09:35:13;4.20;99.90
42365;DHT22;28498;54.400;18.566;2024-03-07T09:37:43;4.20;99.90
42365;DHT22;28498;54.400;18.566;2024-03-07T09:40:11;4.30;99.90
42365;DHT22;28498;54.400;18.566;2024-03-07T09:42:46;4.30;99.90
42365;DHT22;28498;54.400;18.566;2024-03-07T09:45:17;4.30;99.90
42365;DHT22;28498;54.400;18.566;2024-03-07T09:47:47;4.30;99.90
42365;DHT22;28498;54.400;18.566;2024-03-07T09:50:17;4.30;99.90
42365;DHT22;28498;54.400;18.566;2024-03-07T09:52:51;4.30;99.90
42365;DHT22;28498;54.400;18.566;2024-03-07T09:55:21;4.40;99.90
42365;DHT22;28498;54.400;18.566;2024-03-07T09:57:53;4.40;99.90
42365;DHT22;28498;54.400;18.566;2024-03-07T10:00:24;4.50;99.90
42365;DHT22;28498;54.400;18.566;2024-03-07T10:03:08;4.50;99.90
42365;DHT22;28498;54.400;18.566;2024-03-07T10:05:37;4.50;99.90
42365;DHT22;28498;54.400;18.566;2024-03-07T10:08:06;4.50;99.90
42365;DHT22;28498;54.400;18.566;2024-03-07T10:14:15;4.50;99.90
42365;DHT22;28498;54.400;18.566;2024-03-07T10:16:42;4.60;99.90
42365;DHT22;28498;54.400;18.566;2024-03-07T10:19:09;4.60;99.90
42365;DHT22;28498;54.400;18.566;2024-03-07T10:21:36;4.50;99.90
42365;DHT22;28498;54.400;18.566;2024-03-07T10:24:08;4.60;99.90
42365;DHT22;28498;54.400;18.566;2024-03-07T10:26:36;4.60;99.90
42365;DHT22;28498;54.400;18.566;2024-03-07T10:29:04;4.50;99.90
42365;DHT22;28498;54.400;18.566;2024-03-07T10:31:33;4.40;99.90
42365;DHT22;28498;54.400;18.566;2024-03-07T10:34:03;4.60;99.90
42365;DHT22;28498;54.400;18.566;2024-03-07T10:36:31;4.40;99.90
42365;DHT22;28498;54.400;18.566;2024-03-07T10:39:00;4.40;99.90
42365;DHT22;28498;54.400;18.566;2024-03-07T10:41:47;4.50;99.90
42365;DHT22;28498;54.400;18.566;2024-03-07T10:44:24;4.60;99.90
42365;DHT22;28498;54.400;18.566;2024-03-07T10:46:53;4.50;99.90
42365;DHT22;28498;54.400;18.566;2024-03-07T10:49:21;4.50;99.90
42365;DHT22;28498;54.400;18.566;2024-03-07T10:52:10;4.60;99.90
42365;DHT22;28498;54.400;18.566;2024-03-07T10:55:03;4.60;99.90
42365;DHT22;28498;54.400;18.566;2024-03-07T11:00:12;4.60;99.90
42365;DHT22;28498;54.400;18.566;2024-03-07T11:03:04;4.60;99.90
42365;DHT22;28498;54.400;18.566;2024-03-07T11:05:35;4.60;99.90
42365;DHT22;28498;54.400;18.566;2024-03-07T11:08:04;4.50;99.90
42365;DHT22;28498;54.400;18.566;2024-03-07T11:10:40;4.50;99.90
42365;DHT22;28498;54.400;18.566;2024-03-07T11:13:09;4.50;99.90
42365;DHT22;28498;54.400;18.566;2024-03-07T11:15:42;4.60;99.90
42365;DHT22;28498;54.400;18.566;2024-03-07T11:18:10;4.50;99.90
42365;DHT22;28498;54.400;18.566;2024-03-07T11:20:40;4.50;99.90
42365;DHT22;28498;54.400;18.566;2024-03-07T11:26:09;4.60;99.90
42365;DHT22;28498;54.400;18.566;2024-03-07T11:28:39;4.60;99.90
42365;DHT22;28498;54.400;18.566;2024-03-07T11:31:12;4.70;99.90
42365;DHT22;28498;54.400;18.566;2024-03-07T11:33:41;4.60;99.90
42365;DHT22;28498;54.400;18.566;2024-03-07T11:36:11;4.70;99.90
42365;DHT22;28498;54.400;18.566;2024-03-07T11:38:48;4.60;99.90
42365;DHT22;28498;54.400;18.566;2024-03-07T11:41:19;4.60;99.90
42365;DHT22;28498;54.400;18.566;2024-03-07T11:43:46;4.50;99.90
42365;DHT22;28498;54.400;18.566;2024-03-07T11:46:13;4.40;99.90
42365;DHT22;28498;54.400;18.566;2024-03-07T11:48:44;4.50;99.90
42365;DHT22;28498;54.400;18.566;2024-03-07T11:51:13;4.30;99.90
42365;DHT22;28498;54.400;18.566;2024-03-07T11:53:40;4.40;99.90
42365;DHT22;28498;54.400;18.566;2024-03-07T11:56:08;4.40;99.90
42365;DHT22;28498;54.400;18.566;2024-03-07T11:58:40;4.50;99.90
42365;DHT22;28498;54.400;18.566;2024-03-07T12:01:08;4.60;99.90
42365;DHT22;28498;54.400;18.566;2024-03-07T12:03:38;4.50;99.90
42365;DHT22;28498;54.400;18.566;2024-03-07T12:06:05;4.40;99.90
42365;DHT22;28498;54.400;18.566;2024-03-07T12:08:32;4.40;99.90
42365;DHT22;28498;54.400;18.566;2024-03-07T12:10:59;4.40;99.90
42365;DHT22;28498;54.400;18.566;2024-03-07T12:13:27;4.30;99.90
42365;DHT22;28498;54.400;18.566;2024-03-07T12:15:55;4.30;99.90
42365;DHT22;28498;54.400;18.566;2024-03-07T12:18:25;4.40;99.90
42365;DHT22;28498;54.400;18.566;2024-03-07T12:20:54;4.50;99.90
42365;DHT22;28498;54.400;18.566;2024-03-07T12:23:23;4.40;99.90
42365;DHT22;28498;54.400;18.566;2024-03-07T12:26:03;4.30;99.90
42365;DHT22;28498;54.400;18.566;2024-03-07T12:28:32;4.40;99.90
42365;DHT22;28498;54.400;18.566;2024-03-07T12:31:02;4.40;99.90
42365;DHT22;28498;54.400;18.566;2024-03-07T12:33:30;4.30;99.90
42365;DHT22;28498;54.400;18.566;2024-03-07T12:36:02;4.30;99.90
42365;DHT22;28498;54.400;18.566;2024-03-07T12:38:37;4.20;99.90
42365;DHT22;28498;54.400;18.566;2024-03-07T12:41:09;4.30;99.90
42365;DHT22;28498;54.400;18.566;2024-03-07T12:43:44;4.40;99.90
42365;DHT22;28498;54.400;18.566;2024-03-07T12:46:13;4.40;99.90
42365;DHT22;28498;54.400;18.566;2024-03-07T12:48:42;4.40;99.90
42365;DHT22;28498;54.400;18.566;2024-03-07T12:51:13;4.50;99.90
42365;DHT22;28498;54.400;18.566;2024-03-07T12:53:46;4.50;99.90
42365;DHT22;28498;54.400;18.566;2024-03-07T12:56:14;4.50;99.90
42365;DHT22;28498;54.400;18.566;2024-03-07T12:58:46;4.50;99.90
42365;DHT22;28498;54.400;18.566;2024-03-07T13:01:15;4.50;99.90
42365;DHT22;28498;54.400;18.566;2024-03-07T13:03:42;4.50;99.90
42365;DHT22;28498;54.400;18.566;2024-03-07T13:06:12;4.60;99.90
42365;DHT22;28498;54.400;18.566;2024-03-07T13:08:39;4.70;99.90
42365;DHT22;28498;54.400;18.566;2024-03-07T13:11:07;4.70;99.90
42365;DHT22;28498;54.400;18.566;2024-03-07T13:13:37;4.70;99.90
42365;DHT22;28498;54.400;18.566;2024-03-07T13:16:04;4.60;99.90
42365;DHT22;28498;54.400;18.566;2024-03-07T13:18:31;4.40;99.90
42365;DHT22;28498;54.400;18.566;2024-03-07T13:21:02;4.40;99.90
42365;DHT22;28498;54.400;18.566;2024-03-07T13:23:32;4.30;99.90
42365;DHT22;28498;54.400;18.566;2024-03-07T13:26:01;4.30;99.90
42365;DHT22;28498;54.400;18.566;2024-03-07T13:28:35;4.30;99.90
42365;DHT22;28498;54.400;18.566;2024-03-07T13:31:02;4.40;99.90
42365;DHT22;28498;54.400;18.566;2024-03-07T13:33:30;4.20;99.90
42365;DHT22;28498;54.400;18.566;2024-03-07T13:35:57;4.30;99.90
42365;DHT22;28498;54.400;18.566;2024-03-07T13:38:25;4.20;99.90
42365;DHT22;28498;54.400;18.566;2024-03-07T13:40:53;4.20;99.90
42365;DHT22;28498;54.400;18.566;2024-03-07T13:43:20;4.30;99.90
42365;DHT22;28498;54.400;18.566;2024-03-07T13:45:47;4.40;99.90
42365;DHT22;28498;54.400;18.566;2024-03-07T13:48:15;4.40;99.90
42365;DHT22;28498;54.400;18.566;2024-03-07T13:54:34;4.30;99.90
42365;DHT22;28498;54.400;18.566;2024-03-07T14:06:08;4.20;99.90
42365;DHT22;28498;54.400;18.566;2024-03-07T14:08:52;4.20;99.90
42365;DHT22;28498;54.400;18.566;2024-03-07T14:20:54;4.10;99.90
42365;DHT22;28498;54.400;18.566;2024-03-07T14:26:41;4.10;99.90
42365;DHT22;28498;54.400;18.566;2024-03-07T14:31:59;4.00;99.90
42365;DHT22;28498;54.400;18.566;2024-03-07T14:35:03;4.00;99.90
42365;DHT22;28498;54.400;18.566;2024-03-07T14:37:37;3.90;99.90
42365;DHT22;28498;54.400;18.566;2024-03-07T14:40:10;3.90;99.90
42365;DHT22;28498;54.400;18.566;2024-03-07T14:42:46;3.90;99.90
42365;DHT22;28498;54.400;18.566;2024-03-07T14:45:22;4.00;99.90
42365;DHT22;28498;54.400;18.566;2024-03-07T14:47:51;3.90;99.90
42365;DHT22;28498;54.400;18.566;2024-03-07T14:50:22;4.10;99.90
42365;DHT22;28498;54.400;18.566;2024-03-07T14:52:51;4.00;99.90
42365;DHT22;28498;54.400;18.566;2024-03-07T14:55:18;3.90;99.90
42365;DHT22;28498;54.400;18.566;2024-03-07T14:57:46;4.00;99.90
42365;DHT22;28498;54.400;18.566;2024-03-07T15:00:13;3.90;99.90
42365;DHT22;28498;54.400;18.566;2024-03-07T15:03:00;3.80;99.90
42365;DHT22;28498;54.400;18.566;2024-03-07T15:05:27;3.70;99.90
42365;DHT22;28498;54.400;18.566;2024-03-07T15:07:55;3.70;99.90
42365;DHT22;28498;54.400;18.566;2024-03-07T15:10:34;3.60;99.90
42365;DHT22;28498;54.400;18.566;2024-03-07T15:13:02;3.60;99.90
42365;DHT22;28498;54.400;18.566;2024-03-07T15:15:32;3.60;99.90
42365;DHT22;28498;54.400;18.566;2024-03-07T15:17:59;3.60;99.90
42365;DHT22;28498;54.400;18.566;2024-03-07T15:20:27;3.60;99.90
42365;DHT22;28498;54.400;18.566;2024-03-07T15:23:01;3.50;99.90
42365;DHT22;28498;54.400;18.566;2024-03-07T15:25:29;3.50;99.90
42365;DHT22;28498;54.400;18.566;2024-03-07T15:27:57;3.50;99.90
42365;DHT22;28498;54.400;18.566;2024-03-07T15:30:26;3.50;99.90
42365;DHT22;28498;54.400;18.566;2024-03-07T15:33:04;3.60;99.90
42365;DHT22;28498;54.400;18.566;2024-03-07T15:35:32;3.60;99.90
42365;DHT22;28498;54.400;18.566;2024-03-07T15:38:00;3.60;99.90
42365;DHT22;28498;54.400;18.566;2024-03-07T15:40:30;3.50;99.90
42365;DHT22;28498;54.400;18.566;2024-03-07T15:42:57;3.40;99.90
42365;DHT22;28498;54.400;18.566;2024-03-07T15:45:25;3.30;99.90
42365;DHT22;28498;54.400;18.566;2024-03-07T15:47:57;3.20;99.90
42365;DHT22;28498;54.400;18.566;2024-03-07T15:50:32;3.10;99.90
42365;DHT22;28498;54.400;18.566;2024-03-07T15:53:00;3.10;99.90
42365;DHT22;28498;54.400;18.566;2024-03-07T15:55:27;3.00;99.90
42365;DHT22;28498;54.400;18.566;2024-03-07T15:57:59;2.90;99.90
42365;DHT22;28498;54.400;18.566;2024-03-07T16:00:31;2.90;99.90
42365;DHT22;28498;54.400;18.566;2024-03-07T16:03:01;2.80;99.90
42365;DHT22;28498;54.400;18.566;2024-03-07T16:05:31;2.80;99.90
42365;DHT22;28498;54.400;18.566;2024-03-07T16:08:02;2.70;99.90
42365;DHT22;28498;54.400;18.566;2024-03-07T16:10:35;2.70;99.90
42365;DHT22;28498;54.400;18.566;2024-03-07T16:13:04;2.60;99.90
42365;DHT22;28498;54.400;18.566;2024-03-07T16:15:35;2.60;99.90
42365;DHT22;28498;54.400;18.566;2024-03-07T16:18:08;2.50;99.90
42365;DHT22;28498;54.400;18.566;2024-03-07T16:20:38;2.50;99.90
42365;DHT22;28498;54.400;18.566;2024-03-07T16:23:05;2.40;99.90
42365;DHT22;28498;54.400;18.566;2024-03-07T16:25:37;2.30;99.90
42365;DHT22;28498;54.400;18.566;2024-03-07T16:28:05;2.30;99.90
42365;DHT22;28498;54.400;18.566;2024-03-07T16:30:34;2.20;99.90